createdAt,value
2023-04-23T00:01:17.758Z,33.50
2023-04-23T00:03:46.685Z,33.00
2023-04-23T00:06:15.362Z,32.57
2023-04-23T00:08:44.094Z,33.80
2023-04-23T00:11:14.006Z,33.70
2023-04-23T00:13:42.360Z,34.23
2023-04-23T00:16:11.745Z,33.43
2023-04-23T00:18:39.927Z,34.37
2023-04-23T00:21:09.216Z,34.60
2023-04-23T00:23:37.435Z,36.07
2023-04-23T00:26:05.738Z,36.20
2023-04-23T00:28:35.241Z,34.30
2023-04-23T00:31:03.417Z,35.43
2023-04-23T00:33:31.723Z,36.93
2023-04-23T00:35:59.868Z,37.53
2023-04-23T00:38:28.079Z,36.67
2023-04-23T00:40:56.498Z,35.37
2023-04-23T00:43:24.911Z,36.77
2023-04-23T00:45:54.476Z,36.67
2023-04-23T00:48:22.853Z,35.40
2023-04-23T00:50:51.169Z,37.60
2023-04-23T00:53:19.331Z,36.90
2023-04-23T00:55:47.861Z,36.40
2023-04-23T00:58:16.042Z,35.67
2023-04-23T01:00:46.509Z,35.07
2023-04-23T01:03:18.479Z,36.30
2023-04-23T01:05:47.040Z,36.37
2023-04-23T01:08:16.704Z,34.63
2023-04-23T01:10:45.522Z,35.03
2023-04-23T01:13:13.656Z,35.27
2023-04-23T01:15:42.329Z,33.97
2023-04-23T01:18:11.085Z,34.87
2023-04-23T01:20:40.669Z,33.20
2023-04-23T01:23:10.213Z,32.50
2023-04-23T01:25:38.432Z,33.70
2023-04-23T01:28:07.490Z,33.40
2023-04-23T01:30:35.786Z,34.03
2023-04-23T01:33:04.026Z,34.57
2023-04-23T01:35:32.908Z,33.70
2023-04-23T01:38:02.335Z,34.20
2023-04-23T01:40:31.883Z,33.77
2023-04-23T01:43:00.085Z,34.13
2023-04-23T01:45:28.316Z,32.87
2023-04-23T01:47:56.553Z,34.00
2023-04-23T01:50:26.162Z,33.07
2023-04-23T01:52:54.296Z,31.47
2023-04-23T01:55:23.623Z,32.07
2023-04-23T01:57:53.238Z,30.97
2023-04-23T02:00:21.549Z,31.50
2023-04-23T02:02:51.615Z,30.73
2023-04-23T02:05:20.737Z,28.70
2023-04-23T02:07:49.945Z,28.73
2023-04-23T02:10:18.641Z,29.73
2023-04-23T02:12:46.999Z,28.50
2023-04-23T02:15:16.987Z,27.07
2023-04-23T02:17:45.217Z,27.03
2023-04-23T02:20:13.718Z,26.23
2023-04-23T02:22:42.605Z,27.70
2023-04-23T02:25:11.023Z,27.90
2023-04-23T02:27:39.242Z,26.80
2023-04-23T02:30:09.267Z,26.27
2023-04-23T02:32:38.960Z,26.33
2023-04-23T02:35:09.390Z,25.73
2023-04-23T02:37:37.999Z,26.17
2023-04-23T02:40:06.852Z,25.10
2023-04-23T02:42:35.133Z,25.37
2023-04-23T02:45:03.313Z,24.63
2023-04-23T02:47:31.616Z,25.40
2023-04-23T02:50:03.268Z,26.53
2023-04-23T02:52:31.507Z,24.27
2023-04-23T02:54:59.705Z,24.17
2023-04-23T02:57:28.148Z,25.13
2023-04-23T02:59:56.488Z,23.83
2023-04-23T03:02:24.821Z,25.50
2023-04-23T03:04:53.121Z,24.97
2023-04-23T03:07:22.638Z,24.60
2023-04-23T03:09:50.842Z,24.50
2023-04-23T03:12:19.064Z,25.17
2023-04-23T03:14:47.218Z,25.93
2023-04-23T03:17:15.382Z,24.57
2023-04-23T03:19:43.504Z,24.17
2023-04-23T03:22:11.633Z,23.57
2023-04-23T03:24:41.478Z,25.23
2023-04-23T03:27:09.814Z,24.70
2023-04-23T03:29:38.424Z,23.87
2023-04-23T03:32:07.103Z,25.17
2023-04-23T03:34:35.288Z,24.70
2023-04-23T03:37:03.414Z,24.17
2023-04-23T03:39:31.555Z,25.07
2023-04-23T03:42:02.038Z,24.83
2023-04-23T03:44:30.281Z,24.23
2023-04-23T03:46:58.521Z,24.53
2023-04-23T03:49:27.685Z,22.40
2023-04-23T03:51:55.864Z,24.90
2023-04-23T03:54:25.753Z,23.30
2023-04-23T03:56:53.875Z,23.80
2023-04-23T03:59:23.793Z,23.40
2023-04-23T04:01:51.983Z,24.60
2023-04-23T04:04:20.464Z,24.23
2023-04-23T04:06:48.863Z,22.77
2023-04-23T04:09:17.343Z,23.20
2023-04-23T04:11:45.519Z,22.03
2023-04-23T04:14:13.741Z,22.17
2023-04-23T04:16:43.241Z,22.87
2023-04-23T04:19:11.993Z,21.93
2023-04-23T04:21:40.197Z,21.93
2023-04-23T04:24:08.720Z,22.20
2023-04-23T04:26:37.302Z,21.63
2023-04-23T04:29:05.612Z,20.87
2023-04-23T04:31:33.944Z,21.97
2023-04-23T04:34:03.462Z,20.73
2023-04-23T04:36:31.869Z,21.03
2023-04-23T04:39:00.705Z,22.10
2023-04-23T04:41:29.028Z,21.97
2023-04-23T04:43:58.569Z,21.30
2023-04-23T04:46:29.248Z,21.30
2023-04-23T04:48:57.615Z,21.53
2023-04-23T04:51:28.445Z,21.60
2023-04-23T04:53:56.613Z,22.10
2023-04-23T04:56:25.818Z,21.30
2023-04-23T04:58:54.011Z,20.97
2023-04-23T05:01:23.144Z,21.20
2023-04-23T05:03:51.505Z,21.33
2023-04-23T05:06:19.804Z,20.93
2023-04-23T05:08:49.520Z,21.97
2023-04-23T05:11:17.868Z,21.77
2023-04-23T05:13:46.314Z,20.40
2023-04-23T05:16:14.648Z,21.03
2023-04-23T05:18:43.319Z,21.93
2023-04-23T05:21:11.654Z,22.07
2023-04-23T05:23:39.825Z,21.43
2023-04-23T05:26:09.630Z,21.23
2023-04-23T05:28:37.973Z,21.40
2023-04-23T05:31:06.326Z,20.93
2023-04-23T05:33:46.240Z,21.87
2023-04-23T05:36:17.308Z,20.90
2023-04-23T05:38:45.516Z,20.17
2023-04-23T05:41:15.563Z,20.97
2023-04-23T05:43:44.069Z,21.90
2023-04-23T05:46:12.384Z,20.53
2023-04-23T05:48:40.637Z,20.93
2023-04-23T05:51:08.888Z,20.43
2023-04-23T05:53:37.086Z,19.97
2023-04-23T05:56:05.551Z,20.17
2023-04-23T05:58:35.192Z,21.07
2023-04-23T06:01:03.457Z,19.83
2023-04-23T06:03:32.012Z,19.57
2023-04-23T06:06:00.411Z,20.10
2023-04-23T06:08:29.391Z,19.10
2023-04-23T06:10:58.111Z,19.23
2023-04-23T06:13:28.112Z,16.97
2023-04-23T06:15:57.611Z,16.77
2023-04-23T06:18:26.178Z,15.20
2023-04-23T06:20:56.877Z,16.17
2023-04-23T06:23:25.026Z,13.47
2023-04-23T06:25:53.200Z,13.70
2023-04-23T06:28:21.559Z,14.13
2023-04-23T06:30:49.752Z,13.23
2023-04-23T06:33:19.300Z,12.40
2023-04-23T06:35:47.606Z,12.90
2023-04-23T06:38:15.908Z,11.67
2023-04-23T06:40:44.104Z,11.73
2023-04-23T06:43:12.826Z,11.23
2023-04-23T06:45:40.989Z,11.90
2023-04-23T06:48:09.216Z,11.67
2023-04-23T06:50:39.410Z,11.83
2023-04-23T06:53:07.596Z,11.23
2023-04-23T06:55:36.041Z,11.60
2023-04-23T06:58:04.208Z,11.23
2023-04-23T07:00:32.938Z,10.87
2023-04-23T07:03:01.462Z,10.73
2023-04-23T07:05:29.733Z,11.03
2023-04-23T07:07:59.246Z,10.60
2023-04-23T07:10:27.408Z,10.13
2023-04-23T07:12:55.953Z,10.20
2023-04-23T07:15:24.301Z,10.47
2023-04-23T07:17:52.714Z,9.37
2023-04-23T07:20:21.307Z,9.63
2023-04-23T07:22:49.507Z,9.70
2023-04-23T07:25:19.056Z,9.23
2023-04-23T07:27:47.388Z,8.53
2023-04-23T07:30:16.238Z,8.93
2023-04-23T07:32:44.628Z,9.40
2023-04-23T07:35:12.924Z,8.30
2023-04-23T07:37:41.224Z,8.53
2023-04-23T07:40:10.124Z,8.37
2023-04-23T07:42:39.900Z,8.80
2023-04-23T07:45:08.731Z,8.10
2023-04-23T07:47:36.983Z,8.23
2023-04-23T07:50:05.340Z,7.60
2023-04-23T07:52:33.533Z,8.03
2023-04-23T07:55:01.748Z,7.80
2023-04-23T07:57:29.884Z,7.37
2023-04-23T07:59:59.374Z,6.80
2023-04-23T08:02:28.402Z,6.60
2023-04-23T08:04:56.965Z,6.80
2023-04-23T08:07:25.284Z,6.67
2023-04-23T08:09:53.434Z,7.30
2023-04-23T08:12:21.681Z,6.90
2023-04-23T08:14:50.985Z,7.37
2023-04-23T08:17:20.503Z,7.23
2023-04-23T08:19:48.615Z,7.37
2023-04-23T08:22:17.462Z,7.13
2023-04-23T08:24:46.278Z,6.70
2023-04-23T08:27:14.445Z,7.03
2023-04-23T08:29:42.866Z,5.87
2023-04-23T08:32:11.448Z,6.97
2023-04-23T08:34:41.108Z,7.67
2023-04-23T08:37:16.590Z,6.83
2023-04-23T08:39:51.711Z,8.00
2023-04-23T08:42:22.829Z,7.13
2023-04-23T08:44:54.115Z,6.90
2023-04-23T08:47:26.014Z,7.03
2023-04-23T08:49:56.548Z,8.03
2023-04-23T08:52:25.438Z,8.17
2023-04-23T08:54:54.831Z,7.77
2023-04-23T08:57:23.834Z,9.07
2023-04-23T08:59:52.066Z,8.23
2023-04-23T09:02:20.745Z,7.70
2023-04-23T09:04:50.874Z,8.87
2023-04-23T09:07:21.765Z,10.73
2023-04-23T09:09:50.103Z,9.17
2023-04-23T09:12:18.283Z,8.93
2023-04-23T09:14:46.504Z,9.43
2023-04-23T09:17:14.738Z,9.63
2023-04-23T09:19:43.731Z,9.87
2023-04-23T09:22:12.070Z,8.73
2023-04-23T09:24:43.807Z,8.13
2023-04-23T09:27:12.221Z,7.70
2023-04-23T09:29:40.513Z,6.93
2023-04-23T09:32:09.823Z,5.80
2023-04-23T09:34:38.690Z,6.77
2023-04-23T09:37:07.894Z,7.07
2023-04-23T09:39:36.710Z,6.30
2023-04-23T09:42:08.462Z,6.10
2023-04-23T09:44:36.783Z,5.10
2023-04-23T09:47:09.576Z,5.60
2023-04-23T09:49:47.288Z,5.30
2023-04-23T09:52:15.497Z,7.30
2023-04-23T09:54:46.248Z,6.40
2023-04-23T09:57:15.868Z,4.97
2023-04-23T09:59:48.852Z,4.80
2023-04-23T10:02:20.003Z,4.73
2023-04-23T10:04:58.571Z,3.70
2023-04-23T10:07:35.522Z,4.40
2023-04-23T10:10:03.832Z,4.40
2023-04-23T10:12:50.251Z,4.10
2023-04-23T10:15:21.825Z,4.37
2023-04-23T10:17:51.210Z,4.00
2023-04-23T10:20:19.671Z,3.53
2023-04-23T10:22:47.956Z,4.33
2023-04-23T10:25:16.833Z,3.97
2023-04-23T10:27:53.920Z,3.40
2023-04-23T10:30:23.555Z,3.70
2023-04-23T10:32:52.197Z,3.70
2023-04-23T10:35:20.462Z,3.87
2023-04-23T10:37:50.035Z,3.40
2023-04-23T10:40:22.503Z,2.90
2023-04-23T10:42:52.280Z,2.80
2023-04-23T10:45:24.848Z,2.37
2023-04-23T10:47:55.964Z,2.50
2023-04-23T10:50:24.948Z,3.20
2023-04-23T10:52:54.454Z,3.00
2023-04-23T10:55:23.602Z,2.27
2023-04-23T10:58:01.737Z,2.70
2023-04-23T11:00:31.515Z,2.10
2023-04-23T11:02:59.937Z,2.30
2023-04-23T11:05:29.306Z,2.60
2023-04-23T11:08:18.241Z,2.63
2023-04-23T11:10:57.668Z,2.30
2023-04-23T11:13:27.997Z,2.00
2023-04-23T11:16:14.856Z,1.90
2023-04-23T11:19:03.536Z,2.43
2023-04-23T11:21:50.470Z,2.40
2023-04-23T11:24:18.690Z,2.30
2023-04-23T11:26:48.690Z,2.27
2023-04-23T11:29:18.546Z,2.30
2023-04-23T11:32:00.984Z,2.40
2023-04-23T11:34:31.054Z,2.23
2023-04-23T11:37:00.691Z,1.93
2023-04-23T11:39:28.977Z,1.80
2023-04-23T11:41:59.335Z,1.90
2023-04-23T11:44:28.980Z,1.77
2023-04-23T11:46:58.461Z,2.07
2023-04-23T11:49:26.862Z,2.13
2023-04-23T11:51:55.097Z,2.43
2023-04-23T11:54:28.167Z,2.20
2023-04-23T11:56:56.540Z,2.30
2023-04-23T11:59:24.877Z,2.10
2023-04-23T12:01:55.072Z,2.07
2023-04-23T12:04:24.145Z,2.60
2023-04-23T12:06:53.738Z,2.13
2023-04-23T12:09:23.539Z,2.03
2023-04-23T12:11:52.077Z,2.10
2023-04-23T12:14:23.943Z,2.50
2023-04-23T12:16:53.659Z,2.23
2023-04-23T12:19:22.906Z,2.43
2023-04-23T12:21:55.731Z,2.70
2023-04-23T12:24:24.680Z,2.07
2023-04-23T12:26:54.563Z,2.47
2023-04-23T12:29:23.922Z,1.90
2023-04-23T12:31:53.934Z,2.30
2023-04-23T12:34:22.912Z,2.30
2023-04-23T12:36:52.168Z,2.40
2023-04-23T12:39:24.876Z,1.83
2023-04-23T12:41:53.986Z,2.00
2023-04-23T12:44:22.303Z,1.80
2023-04-23T12:46:59.018Z,2.00
2023-04-23T12:49:27.997Z,1.70
2023-04-23T12:52:00.783Z,1.83
2023-04-23T12:54:29.581Z,1.80
2023-04-23T12:56:57.782Z,2.07
2023-04-23T12:59:25.930Z,2.00
2023-04-23T13:01:54.156Z,2.27
2023-04-23T13:04:23.701Z,2.17
2023-04-23T13:06:52.895Z,2.40
2023-04-23T13:09:21.879Z,2.93
2023-04-23T13:11:50.584Z,3.77
2023-04-23T13:14:19.188Z,3.53
2023-04-23T13:16:47.408Z,3.60
2023-04-23T13:19:16.928Z,3.53
2023-04-23T13:21:46.882Z,3.70
2023-04-23T13:24:15.063Z,3.80
2023-04-23T13:26:43.262Z,4.00
2023-04-23T13:29:11.403Z,3.60
2023-04-23T13:31:39.579Z,3.57
2023-04-23T13:34:07.857Z,3.53
2023-04-23T13:36:37.161Z,3.67
2023-04-23T13:39:07.318Z,3.40
2023-04-23T13:41:35.641Z,3.50
2023-04-23T13:44:03.835Z,3.37
2023-04-23T13:46:32.212Z,3.53
2023-04-23T13:49:01.203Z,3.57
2023-04-23T13:51:35.317Z,3.57
2023-04-23T13:54:04.406Z,4.07
2023-04-23T13:56:34.218Z,4.43
2023-04-23T14:01:35.363Z,4.37
2023-04-23T14:04:04.730Z,4.20
2023-04-23T14:06:32.947Z,4.13
2023-04-23T14:09:01.095Z,4.70
2023-04-23T14:11:29.228Z,4.47
2023-04-23T14:14:00.767Z,4.20
2023-04-23T14:16:29.024Z,4.00
2023-04-23T14:18:58.444Z,2.00
2023-04-23T14:21:26.658Z,2.10
2023-04-23T14:23:57.611Z,2.00
2023-04-23T14:26:44.914Z,1.73
2023-04-23T14:29:25.235Z,1.43
2023-04-23T14:31:53.481Z,1.90
2023-04-23T14:34:22.153Z,1.60
2023-04-23T14:36:52.608Z,1.40
2023-04-23T14:39:20.791Z,1.40
2023-04-23T14:41:48.979Z,1.50
2023-04-23T14:44:17.220Z,1.43
2023-04-23T14:46:47.985Z,1.50
2023-04-23T14:49:16.121Z,1.77
2023-04-23T14:51:44.352Z,1.70
2023-04-23T14:54:12.526Z,1.80
2023-04-23T14:56:42.088Z,1.90
2023-04-23T14:59:10.276Z,2.03
2023-04-23T15:01:38.502Z,2.43
2023-04-23T15:04:08.183Z,2.30
2023-04-23T15:06:36.478Z,2.27
2023-04-23T15:09:04.622Z,2.30
2023-04-23T15:11:33.203Z,2.30
2023-04-23T15:14:04.485Z,2.43
2023-04-23T15:19:06.246Z,2.00
2023-04-23T15:21:35.796Z,2.20
2023-04-23T15:24:04.036Z,2.00
2023-04-23T15:26:33.784Z,1.70
2023-04-23T15:29:03.119Z,1.57
2023-04-23T15:31:31.307Z,1.67
2023-04-23T15:33:59.476Z,1.80
2023-04-23T15:36:27.706Z,1.90
2023-04-23T15:38:57.207Z,1.70
2023-04-23T15:41:26.989Z,1.60
2023-04-23T15:43:55.571Z,1.60
2023-04-23T15:46:23.819Z,1.87
2023-04-23T15:48:51.996Z,1.43
2023-04-23T15:51:20.188Z,1.63
2023-04-23T15:53:48.391Z,1.60
2023-04-23T15:56:17.856Z,1.53
2023-04-23T15:58:46.005Z,1.50
2023-04-23T16:01:14.515Z,1.60
2023-04-23T16:03:53.524Z,1.40
2023-04-23T16:06:31.828Z,1.60
2023-04-23T16:09:01.222Z,1.60
2023-04-23T16:11:30.755Z,1.30
2023-04-23T16:13:59.001Z,2.07
2023-04-23T16:16:27.164Z,1.60
2023-04-23T16:18:57.117Z,2.33
2023-04-23T16:21:27.942Z,2.20
2023-04-23T16:23:56.124Z,2.27
2023-04-23T16:26:24.329Z,2.20
2023-04-23T16:29:05.616Z,2.00
2023-04-23T16:31:34.494Z,1.90
2023-04-23T16:34:02.727Z,2.60
2023-04-23T16:36:32.502Z,1.90
2023-04-23T16:39:00.754Z,2.57
2023-04-23T16:41:29.134Z,1.70
2023-04-23T16:43:58.747Z,1.80
2023-04-23T16:46:30.880Z,1.90
2023-04-23T16:48:59.464Z,2.43
2023-04-23T16:51:28.409Z,2.10
2023-04-23T16:53:56.691Z,2.60
2023-04-23T16:56:24.880Z,3.50
2023-04-23T16:58:53.192Z,3.03
2023-04-23T17:01:22.804Z,2.83
2023-04-23T17:03:51.243Z,2.60
2023-04-23T17:06:30.168Z,2.87
2023-04-23T17:08:58.893Z,2.40
2023-04-23T17:11:27.651Z,2.27
2023-04-23T17:13:56.126Z,2.00
2023-04-23T17:16:26.628Z,2.40
2023-04-23T17:18:55.437Z,2.70
2023-04-23T17:21:23.714Z,2.40
2023-04-23T17:23:51.880Z,2.50
2023-04-23T17:26:20.169Z,2.90
2023-04-23T17:28:48.358Z,2.90
2023-04-23T17:31:16.602Z,2.33
2023-04-23T17:33:49.071Z,3.10
2023-04-23T17:36:17.832Z,3.07
2023-04-23T17:38:46.190Z,3.50
2023-04-23T17:41:14.410Z,3.60
2023-04-23T17:43:42.652Z,2.90
2023-04-23T17:46:10.890Z,2.87
2023-04-23T17:48:39.105Z,2.70
2023-04-23T17:51:08.703Z,3.10
2023-04-23T17:53:37.395Z,2.67
2023-04-23T17:56:05.573Z,2.80
2023-04-23T17:58:34.829Z,2.80
2023-04-23T18:01:04.253Z,2.57
2023-04-23T18:03:33.362Z,2.77
2023-04-23T18:06:01.678Z,2.53
2023-04-23T18:08:31.423Z,2.73
2023-04-23T18:10:59.905Z,2.30
2023-04-23T18:13:28.150Z,2.30
2023-04-23T18:15:56.344Z,2.60
2023-04-23T18:18:24.588Z,2.80
2023-04-23T18:20:52.823Z,3.03
2023-04-23T18:23:21.978Z,2.90
2023-04-23T18:25:51.509Z,3.33
2023-04-23T18:28:19.660Z,2.70
2023-04-23T18:30:47.962Z,3.10
2023-04-23T18:33:26.453Z,2.90
2023-04-23T18:35:59.166Z,2.80
2023-04-23T18:38:31.670Z,2.67
2023-04-23T18:41:04.331Z,2.30
2023-04-23T18:43:33.400Z,2.60
2023-04-23T18:46:01.683Z,2.70
2023-04-23T18:48:42.429Z,2.70
2023-04-23T18:51:23.013Z,3.23
2023-04-23T18:53:51.269Z,3.17
2023-04-23T18:56:20.773Z,3.20
2023-04-23T18:58:48.975Z,2.83
2023-04-23T19:01:17.163Z,3.10
2023-04-23T19:03:45.531Z,3.10
2023-04-23T19:06:13.932Z,3.50
2023-04-23T19:08:42.460Z,3.87
2023-04-23T19:11:10.816Z,3.63
2023-04-23T19:13:40.459Z,4.60
2023-04-23T19:16:10.136Z,4.10
2023-04-23T19:18:38.372Z,4.27
2023-04-23T19:21:06.916Z,4.43
2023-04-23T19:23:35.510Z,4.53
2023-04-23T19:26:04.038Z,3.50
2023-04-23T19:28:32.252Z,4.07
2023-04-23T19:31:01.922Z,3.80
2023-04-23T19:33:30.096Z,4.93
2023-04-23T19:35:58.304Z,4.97
2023-04-23T19:38:26.452Z,6.53
2023-04-23T19:40:54.665Z,9.40
2023-04-23T19:43:22.821Z,7.93
2023-04-23T19:45:51.736Z,6.93
2023-04-23T19:48:21.284Z,9.50
2023-04-23T19:50:49.569Z,10.10
2023-04-23T19:53:17.762Z,10.37
2023-04-23T19:55:46.011Z,9.60
2023-04-23T19:58:15.915Z,11.63
2023-04-23T20:00:44.488Z,12.10
2023-04-23T20:03:12.916Z,11.27
2023-04-23T20:05:44.967Z,9.83
2023-04-23T20:08:25.432Z,10.57
2023-04-23T20:10:53.922Z,12.87
2023-04-23T20:13:23.492Z,14.67
2023-04-23T20:15:53.600Z,12.60
2023-04-23T20:18:22.176Z,12.53
2023-04-23T20:20:52.984Z,10.43
2023-04-23T20:23:21.180Z,13.23
2023-04-23T20:25:49.500Z,11.77
2023-04-23T20:28:17.836Z,15.43
2023-04-23T20:30:46.177Z,11.30
2023-04-23T20:33:14.402Z,12.03
2023-04-23T20:35:43.025Z,11.27
2023-04-23T20:38:12.894Z,9.37
2023-04-23T20:40:41.164Z,10.23
2023-04-23T20:43:09.775Z,10.10
2023-04-23T20:45:37.951Z,9.37
2023-04-23T20:48:06.459Z,9.03
2023-04-23T20:50:34.636Z,9.27
2023-04-23T20:53:02.874Z,10.80
2023-04-23T20:55:32.443Z,7.43
2023-04-23T20:58:00.699Z,6.53
2023-04-23T21:00:29.309Z,6.90
2023-04-23T21:02:57.534Z,6.97
2023-04-23T21:05:26.192Z,7.17
2023-04-23T21:07:54.536Z,5.10
2023-04-23T21:10:22.818Z,5.63
2023-04-23T21:12:52.569Z,5.63
2023-04-23T21:15:21.029Z,5.53
2023-04-23T21:17:49.253Z,6.17
2023-04-23T21:20:17.535Z,7.20
2023-04-23T21:22:45.927Z,7.43
2023-04-23T21:25:14.186Z,7.47
2023-04-23T21:27:45.446Z,6.97
2023-04-23T21:30:20.759Z,7.53
2023-04-23T21:32:50.781Z,6.53
2023-04-23T21:35:19.452Z,5.80
2023-04-23T21:37:47.668Z,3.70
2023-04-23T21:40:15.877Z,3.30
2023-04-23T21:42:46.360Z,2.73
2023-04-23T21:45:14.602Z,4.33
2023-04-23T21:47:44.209Z,3.67
2023-04-23T21:50:12.720Z,6.00
2023-04-23T21:52:43.902Z,7.60
2023-04-23T21:55:12.716Z,11.83
2023-04-23T21:57:40.928Z,21.73
2023-04-23T22:00:11.287Z,20.20
2023-04-23T22:02:40.314Z,11.00
2023-04-23T22:05:11.029Z,11.50
2023-04-23T22:07:41.310Z,4.23
2023-04-23T22:10:11.411Z,4.43
2023-04-23T22:12:39.739Z,7.03
2023-04-23T22:15:08.510Z,13.30
2023-04-23T22:17:38.432Z,12.97
2023-04-23T22:20:07.512Z,23.50
2023-04-23T22:22:37.692Z,24.03
2023-04-23T22:25:06.731Z,20.37
2023-04-23T22:27:34.958Z,16.33
2023-04-23T22:30:03.862Z,34.03
2023-04-23T22:32:32.292Z,44.10
2023-04-23T22:35:01.157Z,44.53
2023-04-23T22:37:29.392Z,67.53
2023-04-23T22:39:59.242Z,95.37
2023-04-23T22:42:27.495Z,86.87
2023-04-23T22:44:55.691Z,95.13
2023-04-23T22:47:23.882Z,128.27
2023-04-23T22:49:52.176Z,108.63
2023-04-23T22:52:20.748Z,113.10
2023-04-23T22:54:48.855Z,97.13
2023-04-23T22:57:18.354Z,102.87
2023-04-23T22:59:46.558Z,126.10
2023-04-23T23:02:14.715Z,135.33
2023-04-23T23:04:42.941Z,138.90
2023-04-23T23:07:11.209Z,143.43
2023-04-23T23:09:39.376Z,163.10
2023-04-23T23:12:08.284Z,191.63
2023-04-23T23:14:38.182Z,201.77
2023-04-23T23:17:06.645Z,196.40
2023-04-23T23:19:34.940Z,199.07
2023-04-23T23:22:03.906Z,225.33
2023-04-23T23:24:32.082Z,217.97
2023-04-23T23:27:01.385Z,210.10
2023-04-23T23:29:29.623Z,217.20
2023-04-23T23:31:59.934Z,218.20
2023-04-23T23:34:28.113Z,277.90
2023-04-23T23:36:56.398Z,227.10
2023-04-23T23:39:24.732Z,258.93
2023-04-23T23:41:52.923Z,264.00
2023-04-23T23:44:21.145Z,304.40
2023-04-23T23:46:49.426Z,250.37
2023-04-23T23:49:20.212Z,223.57
2023-04-23T23:51:48.477Z,216.97
2023-04-23T23:54:16.771Z,259.53
2023-04-23T23:56:44.941Z,321.77
2023-04-23T23:59:13.373Z,277.30
